sensor_id;sensor_type;location;lat;lon;timestamp;P1;durP1;ratioP1;P2;durP2;ratioP2
11522;SDS011;70090;43.208;27.904;2024-01-15T00:01:12;24.83;;;18.30;;
11522;SDS011;70090;43.208;27.904;2024-01-15T00:03:39;22.43;;;15.73;;
11522;SDS011;70090;43.208;27.904;2024-01-15T00:06:08;27.07;;;19.90;;
11522;SDS011;70090;43.208;27.904;2024-01-15T00:08:35;30.20;;;20.07;;
11522;SDS011;70090;43.208;27.904;2024-01-15T00:11:02;28.17;;;18.87;;
11522;SDS011;70090;43.208;27.904;2024-01-15T00:13:29;32.77;;;19.17;;
11522;SDS011;70090;43.208;27.904;2024-01-15T00:15:56;24.60;;;17.80;;
11522;SDS011;70090;43.208;27.904;2024-01-15T00:18:23;24.03;;;18.17;;
11522;SDS011;70090;43.208;27.904;2024-01-15T00:20:50;28.13;;;18.90;;
11522;SDS011;70090;43.208;27.904;2024-01-15T00:23:18;27.53;;;20.30;;
11522;SDS011;70090;43.208;27.904;2024-01-15T00:25:45;29.20;;;21.23;;
11522;SDS011;70090;43.208;27.904;2024-01-15T00:28:12;35.07;;;23.97;;
11522;SDS011;70090;43.208;27.904;2024-01-15T00:30:39;38.87;;;24.97;;
11522;SDS011;70090;43.208;27.904;2024-01-15T00:33:06;35.97;;;24.47;;
11522;SDS011;70090;43.208;27.904;2024-01-15T00:35:33;38.97;;;24.63;;
11522;SDS011;70090;43.208;27.904;2024-01-15T00:38:01;36.50;;;26.20;;
11522;SDS011;70090;43.208;27.904;2024-01-15T00:40:29;38.73;;;25.70;;
11522;SDS011;70090;43.208;27.904;2024-01-15T00:42:56;38.67;;;25.33;;
11522;SDS011;70090;43.208;27.904;2024-01-15T00:45:24;32.77;;;20.97;;
11522;SDS011;70090;43.208;27.904;2024-01-15T00:47:51;33.37;;;22.67;;
11522;SDS011;70090;43.208;27.904;2024-01-15T00:50:18;33.87;;;21.53;;
11522;SDS011;70090;43.208;27.904;2024-01-15T00:52:45;30.53;;;21.13;;
11522;SDS011;70090;43.208;27.904;2024-01-15T00:55:12;29.83;;;20.10;;
11522;SDS011;70090;43.208;27.904;2024-01-15T00:57:41;34.00;;;20.90;;
11522;SDS011;70090;43.208;27.904;2024-01-15T01:00:08;31.43;;;20.17;;
11522;SDS011;70090;43.208;27.904;2024-01-15T01:02:35;32.67;;;20.93;;
11522;SDS011;70090;43.208;27.904;2024-01-15T01:05:03;31.93;;;21.20;;
11522;SDS011;70090;43.208;27.904;2024-01-15T01:07:30;34.97;;;21.77;;
11522;SDS011;70090;43.208;27.904;2024-01-15T01:09:57;34.07;;;21.87;;
11522;SDS011;70090;43.208;27.904;2024-01-15T01:12:24;37.17;;;22.20;;
11522;SDS011;70090;43.208;27.904;2024-01-15T01:14:53;37.27;;;22.83;;
11522;SDS011;70090;43.208;27.904;2024-01-15T01:17:20;34.13;;;21.07;;
11522;SDS011;70090;43.208;27.904;2024-01-15T01:19:47;31.57;;;20.93;;
11522;SDS011;70090;43.208;27.904;2024-01-15T01:22:14;35.23;;;22.10;;
11522;SDS011;70090;43.208;27.904;2024-01-15T01:24:41;32.57;;;21.70;;
11522;SDS011;70090;43.208;27.904;2024-01-15T01:27:08;32.27;;;21.87;;
11522;SDS011;70090;43.208;27.904;2024-01-15T01:29:35;34.27;;;22.57;;
11522;SDS011;70090;43.208;27.904;2024-01-15T01:32:03;37.33;;;22.47;;
11522;SDS011;70090;43.208;27.904;2024-01-15T01:34:32;36.13;;;23.53;;
11522;SDS011;70090;43.208;27.904;2024-01-15T01:37:06;38.27;;;24.37;;
11522;SDS011;70090;43.208;27.904;2024-01-15T01:39:33;37.83;;;23.90;;
11522;SDS011;70090;43.208;27.904;2024-01-15T01:42:00;35.40;;;24.47;;
11522;SDS011;70090;43.208;27.904;2024-01-15T01:44:27;37.53;;;23.20;;
11522;SDS011;70090;43.208;27.904;2024-01-15T01:46:54;36.40;;;23.07;;
11522;SDS011;70090;43.208;27.904;2024-01-15T01:49:24;33.57;;;23.20;;
11522;SDS011;70090;43.208;27.904;2024-01-15T01:51:52;34.53;;;23.47;;
11522;SDS011;70090;43.208;27.904;2024-01-15T01:54:20;35.03;;;23.70;;
11522;SDS011;70090;43.208;27.904;2024-01-15T01:56:47;34.03;;;22.03;;
11522;SDS011;70090;43.208;27.904;2024-01-15T01:59:16;38.73;;;22.23;;
11522;SDS011;70090;43.208;27.904;2024-01-15T02:01:43;36.53;;;23.93;;
11522;SDS011;70090;43.208;27.904;2024-01-15T02:04:11;34.73;;;22.97;;
11522;SDS011;70090;43.208;27.904;2024-01-15T02:06:39;36.53;;;24.57;;
11522;SDS011;70090;43.208;27.904;2024-01-15T02:09:07;36.93;;;23.27;;
11522;SDS011;70090;43.208;27.904;2024-01-15T02:11:34;35.23;;;22.63;;
11522;SDS011;70090;43.208;27.904;2024-01-15T02:14:02;38.00;;;23.90;;
11522;SDS011;70090;43.208;27.904;2024-01-15T02:16:29;34.83;;;23.20;;
11522;SDS011;70090;43.208;27.904;2024-01-15T02:18:57;33.97;;;22.93;;
11522;SDS011;70090;43.208;27.904;2024-01-15T02:21:24;35.33;;;22.43;;
11522;SDS011;70090;43.208;27.904;2024-01-15T02:23:55;37.70;;;24.37;;
11522;SDS011;70090;43.208;27.904;2024-01-15T02:26:22;37.93;;;24.00;;
11522;SDS011;70090;43.208;27.904;2024-01-15T02:28:49;39.87;;;24.70;;
11522;SDS011;70090;43.208;27.904;2024-01-15T02:31:17;39.17;;;25.83;;
11522;SDS011;70090;43.208;27.904;2024-01-15T02:33:44;48.33;;;32.37;;
11522;SDS011;70090;43.208;27.904;2024-01-15T02:36:12;38.17;;;25.23;;
11522;SDS011;70090;43.208;27.904;2024-01-15T02:38:41;42.30;;;25.17;;
11522;SDS011;70090;43.208;27.904;2024-01-15T02:41:09;45.80;;;25.90;;
11522;SDS011;70090;43.208;27.904;2024-01-15T02:43:39;42.63;;;25.00;;
11522;SDS011;70090;43.208;27.904;2024-01-15T02:46:06;38.90;;;24.30;;
11522;SDS011;70090;43.208;27.904;2024-01-15T02:48:33;41.47;;;28.43;;
11522;SDS011;70090;43.208;27.904;2024-01-15T02:51:00;63.33;;;40.17;;
11522;SDS011;70090;43.208;27.904;2024-01-15T02:53:27;58.57;;;37.50;;
11522;SDS011;70090;43.208;27.904;2024-01-15T02:55:54;46.80;;;30.53;;
11522;SDS011;70090;43.208;27.904;2024-01-15T02:58:23;40.53;;;26.87;;
11522;SDS011;70090;43.208;27.904;2024-01-15T03:00:50;38.03;;;23.40;;
11522;SDS011;70090;43.208;27.904;2024-01-15T03:03:17;38.70;;;25.13;;
11522;SDS011;70090;43.208;27.904;2024-01-15T03:05:44;35.17;;;24.87;;
11522;SDS011;70090;43.208;27.904;2024-01-15T03:08:11;42.23;;;26.13;;
11522;SDS011;70090;43.208;27.904;2024-01-15T03:10:38;40.07;;;24.97;;
11522;SDS011;70090;43.208;27.904;2024-01-15T03:13:05;40.80;;;25.90;;
11522;SDS011;70090;43.208;27.904;2024-01-15T03:15:33;39.07;;;26.20;;
11522;SDS011;70090;43.208;27.904;2024-01-15T03:18:00;39.20;;;25.97;;
11522;SDS011;70090;43.208;27.904;2024-01-15T03:20:27;37.07;;;22.83;;
11522;SDS011;70090;43.208;27.904;2024-01-15T03:22:54;36.27;;;24.13;;
11522;SDS011;70090;43.208;27.904;2024-01-15T03:25:21;38.17;;;25.67;;
11522;SDS011;70090;43.208;27.904;2024-01-15T03:27:48;43.00;;;29.43;;
11522;SDS011;70090;43.208;27.904;2024-01-15T03:30:15;50.80;;;33.73;;
11522;SDS011;70090;43.208;27.904;2024-01-15T03:32:44;48.13;;;33.50;;
11522;SDS011;70090;43.208;27.904;2024-01-15T03:35:12;39.47;;;25.53;;
11522;SDS011;70090;43.208;27.904;2024-01-15T03:37:39;32.90;;;23.67;;
11522;SDS011;70090;43.208;27.904;2024-01-15T03:40:07;36.73;;;24.57;;
11522;SDS011;70090;43.208;27.904;2024-01-15T03:42:35;41.03;;;26.03;;
11522;SDS011;70090;43.208;27.904;2024-01-15T03:45:02;40.90;;;25.80;;
11522;SDS011;70090;43.208;27.904;2024-01-15T03:47:29;40.57;;;25.07;;
11522;SDS011;70090;43.208;27.904;2024-01-15T03:49:58;35.77;;;23.77;;
11522;SDS011;70090;43.208;27.904;2024-01-15T03:52:25;39.87;;;27.97;;
11522;SDS011;70090;43.208;27.904;2024-01-15T03:54:52;41.67;;;25.83;;
11522;SDS011;70090;43.208;27.904;2024-01-15T03:57:19;51.27;;;29.97;;
11522;SDS011;70090;43.208;27.904;2024-01-15T03:59:46;45.77;;;30.53;;
11522;SDS011;70090;43.208;27.904;2024-01-15T04:02:13;44.47;;;29.67;;
11522;SDS011;70090;43.208;27.904;2024-01-15T04:04:40;38.00;;;25.10;;
11522;SDS011;70090;43.208;27.904;2024-01-15T04:07:09;39.10;;;26.53;;
11522;SDS011;70090;43.208;27.904;2024-01-15T04:09:37;38.90;;;26.00;;
11522;SDS011;70090;43.208;27.904;2024-01-15T04:12:05;39.30;;;25.50;;
11522;SDS011;70090;43.208;27.904;2024-01-15T04:14:32;40.33;;;25.00;;
11522;SDS011;70090;43.208;27.904;2024-01-15T04:16:59;38.13;;;26.60;;
11522;SDS011;70090;43.208;27.904;2024-01-15T04:19:26;51.13;;;34.50;;
11522;SDS011;70090;43.208;27.904;2024-01-15T04:21:53;52.33;;;36.53;;
11522;SDS011;70090;43.208;27.904;2024-01-15T04:24:21;66.10;;;44.23;;
11522;SDS011;70090;43.208;27.904;2024-01-15T04:26:48;63.83;;;43.90;;
11522;SDS011;70090;43.208;27.904;2024-01-15T04:29:15;60.57;;;41.67;;
11522;SDS011;70090;43.208;27.904;2024-01-15T04:31:42;66.33;;;43.23;;
11522;SDS011;70090;43.208;27.904;2024-01-15T04:34:09;74.20;;;50.27;;
11522;SDS011;70090;43.208;27.904;2024-01-15T04:36:38;59.43;;;40.43;;
11522;SDS011;70090;43.208;27.904;2024-01-15T04:39:06;57.87;;;38.83;;
11522;SDS011;70090;43.208;27.904;2024-01-15T04:41:35;66.73;;;44.50;;
11522;SDS011;70090;43.208;27.904;2024-01-15T04:44:02;65.83;;;41.73;;
11522;SDS011;70090;43.208;27.904;2024-01-15T04:46:29;66.40;;;43.57;;
11522;SDS011;70090;43.208;27.904;2024-01-15T04:48:56;70.23;;;45.87;;
11522;SDS011;70090;43.208;27.904;2024-01-15T04:51:23;63.90;;;40.63;;
11522;SDS011;70090;43.208;27.904;2024-01-15T04:53:50;61.53;;;38.40;;
11522;SDS011;70090;43.208;27.904;2024-01-15T04:56:17;62.40;;;38.53;;
11522;SDS011;70090;43.208;27.904;2024-01-15T04:58:46;48.17;;;32.17;;
11522;SDS011;70090;43.208;27.904;2024-01-15T05:01:13;60.43;;;34.70;;
11522;SDS011;70090;43.208;27.904;2024-01-15T05:03:42;47.67;;;31.27;;
11522;SDS011;70090;43.208;27.904;2024-01-15T05:06:09;44.27;;;28.30;;
11522;SDS011;70090;43.208;27.904;2024-01-15T05:08:36;43.73;;;28.87;;
11522;SDS011;70090;43.208;27.904;2024-01-15T05:11:03;46.43;;;31.43;;
11522;SDS011;70090;43.208;27.904;2024-01-15T05:13:30;46.43;;;31.07;;
11522;SDS011;70090;43.208;27.904;2024-01-15T05:15:59;51.77;;;31.03;;
11522;SDS011;70090;43.208;27.904;2024-01-15T05:18:26;56.10;;;33.37;;
11522;SDS011;70090;43.208;27.904;2024-01-15T05:20:53;53.53;;;33.17;;
11522;SDS011;70090;43.208;27.904;2024-01-15T05:23:20;53.50;;;31.03;;
11522;SDS011;70090;43.208;27.904;2024-01-15T05:25:47;42.50;;;27.50;;
11522;SDS011;70090;43.208;27.904;2024-01-15T05:28:14;46.13;;;29.90;;
11522;SDS011;70090;43.208;27.904;2024-01-15T05:30:41;40.93;;;25.07;;
11522;SDS011;70090;43.208;27.904;2024-01-15T05:33:09;42.67;;;28.70;;
11522;SDS011;70090;43.208;27.904;2024-01-15T05:35:36;37.77;;;24.17;;
11522;SDS011;70090;43.208;27.904;2024-01-15T05:38:03;33.90;;;21.40;;
11522;SDS011;70090;43.208;27.904;2024-01-15T05:40:30;34.23;;;23.77;;
11522;SDS011;70090;43.208;27.904;2024-01-15T05:42:57;37.77;;;21.77;;
11522;SDS011;70090;43.208;27.904;2024-01-15T05:45:25;35.07;;;21.37;;
11522;SDS011;70090;43.208;27.904;2024-01-15T05:47:52;39.23;;;23.77;;
11522;SDS011;70090;43.208;27.904;2024-01-15T05:50:21;33.97;;;23.00;;
11522;SDS011;70090;43.208;27.904;2024-01-15T05:52:48;30.67;;;21.00;;
11522;SDS011;70090;43.208;27.904;2024-01-15T05:55:15;37.03;;;23.77;;
11522;SDS011;70090;43.208;27.904;2024-01-15T05:57:43;42.87;;;25.73;;
11522;SDS011;70090;43.208;27.904;2024-01-15T06:00:11;40.60;;;25.60;;
11522;SDS011;70090;43.208;27.904;2024-01-15T06:02:39;39.77;;;25.40;;
11522;SDS011;70090;43.208;27.904;2024-01-15T06:05:06;43.60;;;27.40;;
11522;SDS011;70090;43.208;27.904;2024-01-15T06:07:35;47.00;;;30.17;;
11522;SDS011;70090;43.208;27.904;2024-01-15T06:10:02;45.07;;;28.47;;
11522;SDS011;70090;43.208;27.904;2024-01-15T06:12:29;49.80;;;30.80;;
11522;SDS011;70090;43.208;27.904;2024-01-15T06:14:57;45.60;;;28.67;;
11522;SDS011;70090;43.208;27.904;2024-01-15T06:17:24;52.60;;;32.57;;
11522;SDS011;70090;43.208;27.904;2024-01-15T06:19:51;48.53;;;32.97;;
11522;SDS011;70090;43.208;27.904;2024-01-15T06:22:18;64.17;;;36.13;;
11522;SDS011;70090;43.208;27.904;2024-01-15T06:24:47;57.93;;;37.80;;
11522;SDS011;70090;43.208;27.904;2024-01-15T06:27:14;58.67;;;40.57;;
11522;SDS011;70090;43.208;27.904;2024-01-15T06:29:44;64.37;;;40.37;;
11522;SDS011;70090;43.208;27.904;2024-01-15T06:32:11;64.27;;;39.70;;
11522;SDS011;70090;43.208;27.904;2024-01-15T06:34:38;70.67;;;45.67;;
11522;SDS011;70090;43.208;27.904;2024-01-15T06:37:07;63.27;;;38.90;;
11522;SDS011;70090;43.208;27.904;2024-01-15T06:39:35;62.80;;;35.50;;
11522;SDS011;70090;43.208;27.904;2024-01-15T06:42:03;72.53;;;44.37;;
11522;SDS011;70090;43.208;27.904;2024-01-15T06:44:31;32.10;;;20.53;;
11522;SDS011;70090;43.208;27.904;2024-01-15T06:46:58;43.50;;;27.17;;
11522;SDS011;70090;43.208;27.904;2024-01-15T06:49:27;46.97;;;30.57;;
11522;SDS011;70090;43.208;27.904;2024-01-15T06:51:54;42.37;;;28.40;;
11522;SDS011;70090;43.208;27.904;2024-01-15T06:54:22;67.83;;;42.90;;
11522;SDS011;70090;43.208;27.904;2024-01-15T06:56:49;75.43;;;50.43;;
11522;SDS011;70090;43.208;27.904;2024-01-15T06:59:18;97.10;;;60.77;;
11522;SDS011;70090;43.208;27.904;2024-01-15T07:01:45;66.50;;;44.37;;
11522;SDS011;70090;43.208;27.904;2024-01-15T07:04:12;68.43;;;45.87;;
11522;SDS011;70090;43.208;27.904;2024-01-15T07:06:39;73.43;;;47.40;;
11522;SDS011;70090;43.208;27.904;2024-01-15T07:09:06;78.77;;;49.40;;
11522;SDS011;70090;43.208;27.904;2024-01-15T07:11:34;57.10;;;36.53;;
11522;SDS011;70090;43.208;27.904;2024-01-15T07:14:01;64.07;;;39.67;;
11522;SDS011;70090;43.208;27.904;2024-01-15T07:16:29;71.37;;;41.37;;
11522;SDS011;70090;43.208;27.904;2024-01-15T07:18:56;74.27;;;42.97;;
11522;SDS011;70090;43.208;27.904;2024-01-15T07:21:23;73.63;;;41.27;;
11522;SDS011;70090;43.208;27.904;2024-01-15T07:23:50;64.97;;;38.27;;
11522;SDS011;70090;43.208;27.904;2024-01-15T07:26:17;69.00;;;40.67;;
11522;SDS011;70090;43.208;27.904;2024-01-15T07:28:44;56.30;;;35.67;;
11522;SDS011;70090;43.208;27.904;2024-01-15T07:31:11;50.63;;;32.90;;
11522;SDS011;70090;43.208;27.904;2024-01-15T07:33:40;50.37;;;33.37;;
11522;SDS011;70090;43.208;27.904;2024-01-15T07:36:08;47.30;;;31.60;;
11522;SDS011;70090;43.208;27.904;2024-01-15T07:38:35;68.83;;;43.60;;
11522;SDS011;70090;43.208;27.904;2024-01-15T07:41:02;44.87;;;29.37;;
11522;SDS011;70090;43.208;27.904;2024-01-15T07:43:29;41.70;;;26.73;;
11522;SDS011;70090;43.208;27.904;2024-01-15T07:45:56;46.17;;;30.53;;
11522;SDS011;70090;43.208;27.904;2024-01-15T07:48:23;34.27;;;24.93;;
11522;SDS011;70090;43.208;27.904;2024-01-15T07:50:52;36.90;;;25.57;;
11522;SDS011;70090;43.208;27.904;2024-01-15T07:53:19;38.43;;;27.13;;
11522;SDS011;70090;43.208;27.904;2024-01-15T07:55:46;47.77;;;31.47;;
11522;SDS011;70090;43.208;27.904;2024-01-15T07:58:13;46.73;;;31.97;;
11522;SDS011;70090;43.208;27.904;2024-01-15T08:00:40;55.63;;;34.20;;
11522;SDS011;70090;43.208;27.904;2024-01-15T08:03:07;61.13;;;36.00;;
11522;SDS011;70090;43.208;27.904;2024-01-15T08:05:34;75.03;;;41.20;;
11522;SDS011;70090;43.208;27.904;2024-01-15T08:08:02;74.03;;;44.57;;
11522;SDS011;70090;43.208;27.904;2024-01-15T08:10:30;81.27;;;44.97;;
11522;SDS011;70090;43.208;27.904;2024-01-15T08:12:57;87.30;;;47.00;;
11522;SDS011;70090;43.208;27.904;2024-01-15T08:15:24;60.33;;;39.73;;
11522;SDS011;70090;43.208;27.904;2024-01-15T08:17:51;66.93;;;40.93;;
11522;SDS011;70090;43.208;27.904;2024-01-15T08:20:18;58.87;;;37.83;;
11522;SDS011;70090;43.208;27.904;2024-01-15T08:22:45;55.53;;;36.03;;
11522;SDS011;70090;43.208;27.904;2024-01-15T08:25:14;46.80;;;30.70;;
11522;SDS011;70090;43.208;27.904;2024-01-15T08:27:41;48.40;;;29.73;;
11522;SDS011;70090;43.208;27.904;2024-01-15T08:30:09;44.63;;;27.40;;
11522;SDS011;70090;43.208;27.904;2024-01-15T08:32:37;46.43;;;29.43;;
11522;SDS011;70090;43.208;27.904;2024-01-15T08:35:07;47.50;;;28.70;;
11522;SDS011;70090;43.208;27.904;2024-01-15T08:37:34;48.43;;;30.23;;
11522;SDS011;70090;43.208;27.904;2024-01-15T08:40:01;49.23;;;31.30;;
11522;SDS011;70090;43.208;27.904;2024-01-15T08:42:30;42.47;;;29.60;;
11522;SDS011;70090;43.208;27.904;2024-01-15T08:44:57;45.20;;;27.70;;
11522;SDS011;70090;43.208;27.904;2024-01-15T08:47:24;42.17;;;26.10;;
11522;SDS011;70090;43.208;27.904;2024-01-15T08:49:52;47.33;;;28.13;;
11522;SDS011;70090;43.208;27.904;2024-01-15T08:52:19;41.77;;;24.27;;
11522;SDS011;70090;43.208;27.904;2024-01-15T08:54:46;38.03;;;24.57;;
11522;SDS011;70090;43.208;27.904;2024-01-15T08:57:13;51.30;;;25.37;;
11522;SDS011;70090;43.208;27.904;2024-01-15T08:59:42;40.67;;;25.90;;
11522;SDS011;70090;43.208;27.904;2024-01-15T09:02:10;53.10;;;28.63;;
11522;SDS011;70090;43.208;27.904;2024-01-15T09:04:37;78.83;;;33.83;;
11522;SDS011;70090;43.208;27.904;2024-01-15T09:07:04;49.13;;;32.07;;
11522;SDS011;70090;43.208;27.904;2024-01-15T09:09:31;61.27;;;36.37;;
11522;SDS011;70090;43.208;27.904;2024-01-15T09:11:59;56.63;;;36.37;;
11522;SDS011;70090;43.208;27.904;2024-01-15T09:14:26;71.70;;;44.30;;
11522;SDS011;70090;43.208;27.904;2024-01-15T09:16:55;65.43;;;45.13;;
11522;SDS011;70090;43.208;27.904;2024-01-15T09:19:22;65.70;;;45.03;;
11522;SDS011;70090;43.208;27.904;2024-01-15T09:21:49;69.50;;;45.10;;
11522;SDS011;70090;43.208;27.904;2024-01-15T09:24:17;71.47;;;45.90;;
11522;SDS011;70090;43.208;27.904;2024-01-15T09:26:44;73.93;;;44.17;;
11522;SDS011;70090;43.208;27.904;2024-01-15T09:29:11;63.83;;;41.50;;
11522;SDS011;70090;43.208;27.904;2024-01-15T09:31:41;55.27;;;38.20;;
11522;SDS011;70090;43.208;27.904;2024-01-15T09:34:09;52.70;;;35.10;;
11522;SDS011;70090;43.208;27.904;2024-01-15T09:36:38;72.70;;;28.57;;
11522;SDS011;70090;43.208;27.904;2024-01-15T09:39:07;44.13;;;28.27;;
11522;SDS011;70090;43.208;27.904;2024-01-15T09:41:36;27.50;;;18.50;;
11522;SDS011;70090;43.208;27.904;2024-01-15T09:44:03;30.80;;;21.67;;
11522;SDS011;70090;43.208;27.904;2024-01-15T09:46:31;34.57;;;23.07;;
11522;SDS011;70090;43.208;27.904;2024-01-15T09:48:58;31.67;;;20.83;;
11522;SDS011;70090;43.208;27.904;2024-01-15T09:51:28;32.00;;;20.40;;
11522;SDS011;70090;43.208;27.904;2024-01-15T09:53:58;30.93;;;20.13;;
11522;SDS011;70090;43.208;27.904;2024-01-15T09:56:25;39.13;;;18.90;;
11522;SDS011;70090;43.208;27.904;2024-01-15T09:58:52;27.03;;;19.13;;
11522;SDS011;70090;43.208;27.904;2024-01-15T10:01:20;33.60;;;22.50;;
11522;SDS011;70090;43.208;27.904;2024-01-15T10:03:47;38.07;;;21.57;;
11522;SDS011;70090;43.208;27.904;2024-01-15T10:06:14;33.63;;;19.87;;
11522;SDS011;70090;43.208;27.904;2024-01-15T10:08:45;21.70;;;17.13;;
11522;SDS011;70090;43.208;27.904;2024-01-15T10:11:14;22.23;;;15.13;;
11522;SDS011;70090;43.208;27.904;2024-01-15T10:13:42;15.87;;;12.40;;
11522;SDS011;70090;43.208;27.904;2024-01-15T10:16:08;23.83;;;14.07;;
11522;SDS011;70090;43.208;27.904;2024-01-15T10:18:36;17.20;;;12.47;;
11522;SDS011;70090;43.208;27.904;2024-01-15T10:21:04;20.03;;;13.10;;
11522;SDS011;70090;43.208;27.904;2024-01-15T10:23:32;21.20;;;14.07;;
11522;SDS011;70090;43.208;27.904;2024-01-15T10:26:01;19.67;;;14.30;;
11522;SDS011;70090;43.208;27.904;2024-01-15T10:28:28;21.17;;;14.87;;
11522;SDS011;70090;43.208;27.904;2024-01-15T10:30:57;22.57;;;14.07;;
11522;SDS011;70090;43.208;27.904;2024-01-15T10:33:24;18.47;;;13.90;;
11522;SDS011;70090;43.208;27.904;2024-01-15T10:35:53;16.27;;;11.03;;
11522;SDS011;70090;43.208;27.904;2024-01-15T10:38:21;12.40;;;9.07;;
11522;SDS011;70090;43.208;27.904;2024-01-15T10:40:50;14.57;;;10.60;;
11522;SDS011;70090;43.208;27.904;2024-01-15T10:43:19;14.03;;;11.27;;
11522;SDS011;70090;43.208;27.904;2024-01-15T10:45:47;16.07;;;11.03;;
11522;SDS011;70090;43.208;27.904;2024-01-15T10:48:16;16.87;;;11.93;;
11522;SDS011;70090;43.208;27.904;2024-01-15T10:50:46;14.90;;;11.50;;
11522;SDS011;70090;43.208;27.904;2024-01-15T10:53:14;15.90;;;10.70;;
11522;SDS011;70090;43.208;27.904;2024-01-15T10:55:42;14.03;;;10.50;;
11522;SDS011;70090;43.208;27.904;2024-01-15T10:58:09;14.17;;;11.00;;
11522;SDS011;70090;43.208;27.904;2024-01-15T11:00:38;15.83;;;11.13;;
11522;SDS011;70090;43.208;27.904;2024-01-15T11:03:05;14.17;;;9.13;;
11522;SDS011;70090;43.208;27.904;2024-01-15T11:05:33;14.33;;;9.03;;
11522;SDS011;70090;43.208;27.904;2024-01-15T11:08:01;14.23;;;9.10;;
11522;SDS011;70090;43.208;27.904;2024-01-15T11:10:37;12.40;;;9.20;;
11522;SDS011;70090;43.208;27.904;2024-01-15T11:13:07;13.00;;;9.27;;
11522;SDS011;70090;43.208;27.904;2024-01-15T11:18:29;13.07;;;9.47;;
11522;SDS011;70090;43.208;27.904;2024-01-15T11:23:49;17.43;;;10.30;;
11522;SDS011;70090;43.208;27.904;2024-01-15T11:26:29;12.43;;;9.30;;
11522;SDS011;70090;43.208;27.904;2024-01-15T11:28:58;18.97;;;10.60;;
11522;SDS011;70090;43.208;27.904;2024-01-15T11:31:28;16.53;;;10.27;;
11522;SDS011;70090;43.208;27.904;2024-01-15T11:33:56;12.03;;;8.47;;
11522;SDS011;70090;43.208;27.904;2024-01-15T11:39:40;14.07;;;10.00;;
11522;SDS011;70090;43.208;27.904;2024-01-15T11:42:09;18.60;;;11.47;;
11522;SDS011;70090;43.208;27.904;2024-01-15T11:44:37;17.70;;;11.10;;
11522;SDS011;70090;43.208;27.904;2024-01-15T11:47:06;14.73;;;9.87;;
11522;SDS011;70090;43.208;27.904;2024-01-15T11:49:42;15.50;;;10.63;;
11522;SDS011;70090;43.208;27.904;2024-01-15T11:52:31;12.00;;;8.30;;
11522;SDS011;70090;43.208;27.904;2024-01-15T11:55:06;11.63;;;7.10;;
11522;SDS011;70090;43.208;27.904;2024-01-15T11:57:42;11.17;;;8.10;;
11522;SDS011;70090;43.208;27.904;2024-01-15T12:00:13;11.83;;;7.33;;
11522;SDS011;70090;43.208;27.904;2024-01-15T12:02:42;11.73;;;8.07;;
11522;SDS011;70090;43.208;27.904;2024-01-15T12:05:10;13.77;;;7.77;;
11522;SDS011;70090;43.208;27.904;2024-01-15T12:07:38;14.40;;;8.13;;
11522;SDS011;70090;43.208;27.904;2024-01-15T12:10:08;12.70;;;9.40;;
11522;SDS011;70090;43.208;27.904;2024-01-15T12:12:43;16.67;;;9.73;;
11522;SDS011;70090;43.208;27.904;2024-01-15T12:15:21;11.57;;;9.03;;
11522;SDS011;70090;43.208;27.904;2024-01-15T12:17:49;14.17;;;9.73;;
11522;SDS011;70090;43.208;27.904;2024-01-15T12:20:17;17.60;;;10.33;;
11522;SDS011;70090;43.208;27.904;2024-01-15T12:22:44;14.70;;;9.53;;
11522;SDS011;70090;43.208;27.904;2024-01-15T12:25:12;19.27;;;13.20;;
11522;SDS011;70090;43.208;27.904;2024-01-15T12:27:39;15.70;;;11.27;;
11522;SDS011;70090;43.208;27.904;2024-01-15T12:30:07;17.03;;;11.33;;
11522;SDS011;70090;43.208;27.904;2024-01-15T12:32:36;14.90;;;10.80;;
11522;SDS011;70090;43.208;27.904;2024-01-15T12:35:05;15.17;;;10.33;;
11522;SDS011;70090;43.208;27.904;2024-01-15T12:37:34;19.63;;;10.50;;
11522;SDS011;70090;43.208;27.904;2024-01-15T12:40:02;14.40;;;10.03;;
11522;SDS011;70090;43.208;27.904;2024-01-15T12:42:29;16.20;;;9.47;;
11522;SDS011;70090;43.208;27.904;2024-01-15T12:44:56;13.97;;;9.80;;
11522;SDS011;70090;43.208;27.904;2024-01-15T12:47:24;16.03;;;9.70;;
11522;SDS011;70090;43.208;27.904;2024-01-15T12:49:51;13.63;;;9.10;;
11522;SDS011;70090;43.208;27.904;2024-01-15T12:52:21;15.00;;;9.03;;
11522;SDS011;70090;43.208;27.904;2024-01-15T12:54:48;12.77;;;8.93;;
11522;SDS011;70090;43.208;27.904;2024-01-15T12:57:16;13.57;;;8.00;;
11522;SDS011;70090;43.208;27.904;2024-01-15T12:59:43;14.13;;;8.93;;
11522;SDS011;70090;43.208;27.904;2024-01-15T13:02:10;11.70;;;9.00;;
11522;SDS011;70090;43.208;27.904;2024-01-15T13:04:38;13.00;;;9.20;;
11522;SDS011;70090;43.208;27.904;2024-01-15T13:07:05;14.43;;;10.53;;
11522;SDS011;70090;43.208;27.904;2024-01-15T13:09:34;10.90;;;8.40;;
11522;SDS011;70090;43.208;27.904;2024-01-15T13:12:01;11.67;;;8.67;;
11522;SDS011;70090;43.208;27.904;2024-01-15T13:14:29;20.70;;;11.90;;
11522;SDS011;70090;43.208;27.904;2024-01-15T13:16:56;15.67;;;10.73;;
11522;SDS011;70090;43.208;27.904;2024-01-15T13:19:23;17.40;;;11.80;;
11522;SDS011;70090;43.208;27.904;2024-01-15T13:21:51;16.57;;;11.47;;
11522;SDS011;70090;43.208;27.904;2024-01-15T13:24:18;16.00;;;12.30;;
11522;SDS011;70090;43.208;27.904;2024-01-15T13:26:47;15.37;;;10.00;;
11522;SDS011;70090;43.208;27.904;2024-01-15T13:29:14;20.63;;;13.37;;
11522;SDS011;70090;43.208;27.904;2024-01-15T13:31:41;16.40;;;11.73;;
11522;SDS011;70090;43.208;27.904;2024-01-15T13:34:09;13.13;;;10.83;;
11522;SDS011;70090;43.208;27.904;2024-01-15T13:36:37;21.47;;;14.60;;
11522;SDS011;70090;43.208;27.904;2024-01-15T13:39:04;20.17;;;16.17;;
11522;SDS011;70090;43.208;27.904;2024-01-15T13:41:34;19.27;;;14.27;;
11522;SDS011;70090;43.208;27.904;2024-01-15T13:44:02;13.80;;;10.63;;
11522;SDS011;70090;43.208;27.904;2024-01-15T13:46:30;17.90;;;12.10;;
11522;SDS011;70090;43.208;27.904;2024-01-15T13:48:57;19.13;;;13.33;;
11522;SDS011;70090;43.208;27.904;2024-01-15T13:51:24;14.93;;;10.40;;
11522;SDS011;70090;43.208;27.904;2024-01-15T13:53:51;16.60;;;13.43;;
11522;SDS011;70090;43.208;27.904;2024-01-15T13:56:19;20.93;;;15.10;;
11522;SDS011;70090;43.208;27.904;2024-01-15T13:58:46;15.83;;;12.33;;
11522;SDS011;70090;43.208;27.904;2024-01-15T14:01:16;17.50;;;14.57;;
11522;SDS011;70090;43.208;27.904;2024-01-15T14:03:44;19.07;;;14.27;;
11522;SDS011;70090;43.208;27.904;2024-01-15T14:06:11;12.80;;;10.70;;
11522;SDS011;70090;43.208;27.904;2024-01-15T14:08:38;21.50;;;15.47;;
11522;SDS011;70090;43.208;27.904;2024-01-15T14:11:05;21.53;;;16.53;;
11522;SDS011;70090;43.208;27.904;2024-01-15T14:13:32;23.23;;;16.80;;
11522;SDS011;70090;43.208;27.904;2024-01-15T14:15:59;22.67;;;17.53;;
11522;SDS011;70090;43.208;27.904;2024-01-15T14:18:28;24.27;;;18.23;;
11522;SDS011;70090;43.208;27.904;2024-01-15T14:20:55;25.53;;;20.17;;
11522;SDS011;70090;43.208;27.904;2024-01-15T14:23:22;25.77;;;18.93;;